sensor_id;sensor_type;location;lat;lon;timestamp;temperature;humidity
32201;DHT22;18701;45.588;5.288;2024-01-27T00:01:39;10.80;99.90
32201;DHT22;18701;45.588;5.288;2024-01-27T00:04:04;10.80;99.90
32201;DHT22;18701;45.588;5.288;2024-01-27T00:06:30;10.70;99.90
32201;DHT22;18701;45.588;5.288;2024-01-27T00:08:55;10.70;99.90
32201;DHT22;18701;45.588;5.288;2024-01-27T00:11:21;10.70;99.90
32201;DHT22;18701;45.588;5.288;2024-01-27T00:13:49;10.60;99.90
32201;DHT22;18701;45.588;5.288;2024-01-27T00:16:15;10.70;99.90
32201;DHT22;18701;45.588;5.288;2024-01-27T00:18:41;10.60;99.90
32201;DHT22;18701;45.588;5.288;2024-01-27T00:21:07;10.70;99.90
32201;DHT22;18701;45.588;5.288;2024-01-27T00:23:33;10.70;99.90
32201;DHT22;18701;45.588;5.288;2024-01-27T00:26:00;10.70;99.90
32201;DHT22;18701;45.588;5.288;2024-01-27T00:28:26;10.70;99.90
32201;DHT22;18701;45.588;5.288;2024-01-27T00:30:51;10.80;99.90
32201;DHT22;18701;45.588;5.288;2024-01-27T00:33:17;10.70;99.90
32201;DHT22;18701;45.588;5.288;2024-01-27T00:35:43;10.70;99.90
32201;DHT22;18701;45.588;5.288;2024-01-27T00:38:08;10.70;99.90
32201;DHT22;18701;45.588;5.288;2024-01-27T00:40:34;10.80;99.90
32201;DHT22;18701;45.588;5.288;2024-01-27T00:43:02;10.70;99.90
32201;DHT22;18701;45.588;5.288;2024-01-27T00:45:28;10.70;99.90
32201;DHT22;18701;45.588;5.288;2024-01-27T00:47:56;10.80;99.90
32201;DHT22;18701;45.588;5.288;2024-01-27T00:50:21;10.80;99.90
32201;DHT22;18701;45.588;5.288;2024-01-27T00:52:47;10.80;99.90
32201;DHT22;18701;45.588;5.288;2024-01-27T00:55:13;10.80;99.90
32201;DHT22;18701;45.588;5.288;2024-01-27T00:57:39;10.80;99.90
32201;DHT22;18701;45.588;5.288;2024-01-27T01:00:06;10.70;99.90
32201;DHT22;18701;45.588;5.288;2024-01-27T01:02:32;10.80;99.90
32201;DHT22;18701;45.588;5.288;2024-01-27T01:04:58;10.70;99.90
32201;DHT22;18701;45.588;5.288;2024-01-27T01:07:23;10.70;99.90
32201;DHT22;18701;45.588;5.288;2024-01-27T01:09:50;10.70;99.90
32201;DHT22;18701;45.588;5.288;2024-01-27T01:12:16;10.70;99.90
32201;DHT22;18701;45.588;5.288;2024-01-27T01:14:42;10.70;99.90
32201;DHT22;18701;45.588;5.288;2024-01-27T01:17:08;10.70;99.90
32201;DHT22;18701;45.588;5.288;2024-01-27T01:19:34;10.70;99.90
32201;DHT22;18701;45.588;5.288;2024-01-27T01:21:59;10.60;99.90
32201;DHT22;18701;45.588;5.288;2024-01-27T01:24:25;10.50;99.90
32201;DHT22;18701;45.588;5.288;2024-01-27T01:26:50;10.50;99.90
32201;DHT22;18701;45.588;5.288;2024-01-27T01:29:16;10.50;99.90
32201;DHT22;18701;45.588;5.288;2024-01-27T01:31:45;10.60;99.90
32201;DHT22;18701;45.588;5.288;2024-01-27T01:34:11;10.60;99.90
32201;DHT22;18701;45.588;5.288;2024-01-27T01:36:36;10.50;99.90
32201;DHT22;18701;45.588;5.288;2024-01-27T01:39:03;10.50;99.90
32201;DHT22;18701;45.588;5.288;2024-01-27T01:41:28;10.40;99.90
32201;DHT22;18701;45.588;5.288;2024-01-27T01:43:54;10.40;99.90
32201;DHT22;18701;45.588;5.288;2024-01-27T01:46:22;10.40;99.90
32201;DHT22;18701;45.588;5.288;2024-01-27T01:48:49;10.50;99.90
32201;DHT22;18701;45.588;5.288;2024-01-27T01:51:18;10.60;99.90
32201;DHT22;18701;45.588;5.288;2024-01-27T01:53:48;10.60;99.90
32201;DHT22;18701;45.588;5.288;2024-01-27T01:56:17;10.60;99.90
32201;DHT22;18701;45.588;5.288;2024-01-27T01:58:43;10.40;99.90
32201;DHT22;18701;45.588;5.288;2024-01-27T02:01:09;10.40;99.90
32201;DHT22;18701;45.588;5.288;2024-01-27T02:03:34;10.50;99.90
32201;DHT22;18701;45.588;5.288;2024-01-27T02:06:00;10.40;99.90
32201;DHT22;18701;45.588;5.288;2024-01-27T02:08:26;10.50;99.90
32201;DHT22;18701;45.588;5.288;2024-01-27T02:10:51;10.40;99.90
32201;DHT22;18701;45.588;5.288;2024-01-27T02:13:22;10.30;99.90
32201;DHT22;18701;45.588;5.288;2024-01-27T02:15:49;10.30;99.90
32201;DHT22;18701;45.588;5.288;2024-01-27T02:18:16;10.30;99.90
32201;DHT22;18701;45.588;5.288;2024-01-27T02:20:42;10.30;99.90
32201;DHT22;18701;45.588;5.288;2024-01-27T02:23:08;10.20;99.90
32201;DHT22;18701;45.588;5.288;2024-01-27T02:25:35;10.30;99.90
32201;DHT22;18701;45.588;5.288;2024-01-27T02:28:01;10.30;99.90
32201;DHT22;18701;45.588;5.288;2024-01-27T02:30:28;10.20;99.90
32201;DHT22;18701;45.588;5.288;2024-01-27T02:32:56;10.20;99.90
32201;DHT22;18701;45.588;5.288;2024-01-27T02:35:22;10.20;99.90
32201;DHT22;18701;45.588;5.288;2024-01-27T02:37:48;10.20;99.90
32201;DHT22;18701;45.588;5.288;2024-01-27T02:40:14;10.10;99.90
32201;DHT22;18701;45.588;5.288;2024-01-27T02:42:40;10.00;99.90
32201;DHT22;18701;45.588;5.288;2024-01-27T02:45:10;10.00;99.90
32201;DHT22;18701;45.588;5.288;2024-01-27T02:47:36;9.90;99.90
32201;DHT22;18701;45.588;5.288;2024-01-27T02:50:01;9.90;99.90
32201;DHT22;18701;45.588;5.288;2024-01-27T02:52:27;9.90;99.90
32201;DHT22;18701;45.588;5.288;2024-01-27T02:54:53;9.90;99.90
32201;DHT22;18701;45.588;5.288;2024-01-27T02:57:19;9.90;99.90
32201;DHT22;18701;45.588;5.288;2024-01-27T02:59:48;9.90;99.90
32201;DHT22;18701;45.588;5.288;2024-01-27T03:02:15;9.90;99.90
32201;DHT22;18701;45.588;5.288;2024-01-27T03:04:40;9.90;99.90
32201;DHT22;18701;45.588;5.288;2024-01-27T03:07:06;9.90;99.90
32201;DHT22;18701;45.588;5.288;2024-01-27T03:09:32;9.90;99.90
32201;DHT22;18701;45.588;5.288;2024-01-27T03:11:58;9.80;99.90
32201;DHT22;18701;45.588;5.288;2024-01-27T03:14:24;9.90;99.90
32201;DHT22;18701;45.588;5.288;2024-01-27T03:16:50;9.60;99.90
32201;DHT22;18701;45.588;5.288;2024-01-27T03:19:16;9.60;99.90
32201;DHT22;18701;45.588;5.288;2024-01-27T03:21:41;9.60;99.90
32201;DHT22;18701;45.588;5.288;2024-01-27T03:24:07;9.60;99.90
32201;DHT22;18701;45.588;5.288;2024-01-27T03:26:33;9.60;99.90
32201;DHT22;18701;45.588;5.288;2024-01-27T03:28:59;9.60;99.90
32201;DHT22;18701;45.588;5.288;2024-01-27T03:31:30;9.60;99.90
32201;DHT22;18701;45.588;5.288;2024-01-27T03:33:58;9.60;99.90
32201;DHT22;18701;45.588;5.288;2024-01-27T03:36:23;9.60;99.90
32201;DHT22;18701;45.588;5.288;2024-01-27T03:38:49;9.50;99.90
32201;DHT22;18701;45.588;5.288;2024-01-27T03:41:14;9.50;99.90
32201;DHT22;18701;45.588;5.288;2024-01-27T03:43:40;9.40;99.90
32201;DHT22;18701;45.588;5.288;2024-01-27T03:46:05;9.50;99.90
32201;DHT22;18701;45.588;5.288;2024-01-27T03:48:31;9.50;99.90
32201;DHT22;18701;45.588;5.288;2024-01-27T03:50:57;9.30;99.90
32201;DHT22;18701;45.588;5.288;2024-01-27T03:53:23;9.20;99.90
32201;DHT22;18701;45.588;5.288;2024-01-27T03:55:48;9.30;99.90
32201;DHT22;18701;45.588;5.288;2024-01-27T03:58:14;9.40;99.90
32201;DHT22;18701;45.588;5.288;2024-01-27T04:00:39;9.40;99.90
32201;DHT22;18701;45.588;5.288;2024-01-27T04:03:05;9.40;99.90
32201;DHT22;18701;45.588;5.288;2024-01-27T04:05:31;9.40;99.90
32201;DHT22;18701;45.588;5.288;2024-01-27T04:07:56;9.40;99.90
32201;DHT22;18701;45.588;5.288;2024-01-27T04:10:22;9.40;99.90
32201;DHT22;18701;45.588;5.288;2024-01-27T04:12:49;9.30;99.90
32201;DHT22;18701;45.588;5.288;2024-01-27T04:15:14;9.30;99.90
32201;DHT22;18701;45.588;5.288;2024-01-27T04:17:41;9.20;99.90
32201;DHT22;18701;45.588;5.288;2024-01-27T04:20:08;9.10;99.90
32201;DHT22;18701;45.588;5.288;2024-01-27T04:22:34;9.10;99.90
32201;DHT22;18701;45.588;5.288;2024-01-27T04:25:00;9.30;99.90
32201;DHT22;18701;45.588;5.288;2024-01-27T04:27:29;9.20;99.90
32201;DHT22;18701;45.588;5.288;2024-01-27T04:29:55;9.30;99.90
32201;DHT22;18701;45.588;5.288;2024-01-27T04:32:22;9.30;99.90
32201;DHT22;18701;45.588;5.288;2024-01-27T04:34:48;9.20;99.90
32201;DHT22;18701;45.588;5.288;2024-01-27T04:37:13;9.10;99.90
32201;DHT22;18701;45.588;5.288;2024-01-27T04:39:39;9.10;99.90
32201;DHT22;18701;45.588;5.288;2024-01-27T04:42:05;9.20;99.90
32201;DHT22;18701;45.588;5.288;2024-01-27T04:44:34;9.10;99.90
32201;DHT22;18701;45.588;5.288;2024-01-27T04:47:00;8.90;99.90
32201;DHT22;18701;45.588;5.288;2024-01-27T04:49:26;8.90;99.90
32201;DHT22;18701;45.588;5.288;2024-01-27T04:51:51;8.80;99.90
32201;DHT22;18701;45.588;5.288;2024-01-27T04:54:17;8.80;99.90
32201;DHT22;18701;45.588;5.288;2024-01-27T04:56:42;8.70;99.90
32201;DHT22;18701;45.588;5.288;2024-01-27T04:59:08;8.60;99.90
32201;DHT22;18701;45.588;5.288;2024-01-27T05:01:34;8.60;99.90
32201;DHT22;18701;45.588;5.288;2024-01-27T05:03:59;8.60;99.90
32201;DHT22;18701;45.588;5.288;2024-01-27T05:06:25;8.50;99.90
32201;DHT22;18701;45.588;5.288;2024-01-27T05:08:51;8.60;99.90
32201;DHT22;18701;45.588;5.288;2024-01-27T05:11:29;8.40;99.90
32201;DHT22;18701;45.588;5.288;2024-01-27T05:13:55;8.30;99.90
32201;DHT22;18701;45.588;5.288;2024-01-27T05:16:21;8.20;99.90
32201;DHT22;18701;45.588;5.288;2024-01-27T05:18:46;8.30;99.90
32201;DHT22;18701;45.588;5.288;2024-01-27T05:21:12;8.30;99.90
32201;DHT22;18701;45.588;5.288;2024-01-27T05:23:38;8.20;99.90
32201;DHT22;18701;45.588;5.288;2024-01-27T05:26:05;8.30;99.90
32201;DHT22;18701;45.588;5.288;2024-01-27T05:28:31;8.20;99.90
32201;DHT22;18701;45.588;5.288;2024-01-27T05:30:57;8.10;99.90
32201;DHT22;18701;45.588;5.288;2024-01-27T05:33:23;8.10;99.90
32201;DHT22;18701;45.588;5.288;2024-01-27T05:35:49;7.80;99.90
32201;DHT22;18701;45.588;5.288;2024-01-27T05:38:14;7.80;99.90
32201;DHT22;18701;45.588;5.288;2024-01-27T05:40:41;7.70;99.90
32201;DHT22;18701;45.588;5.288;2024-01-27T05:43:07;7.70;99.90
32201;DHT22;18701;45.588;5.288;2024-01-27T05:45:33;7.70;99.90
32201;DHT22;18701;45.588;5.288;2024-01-27T05:47:58;7.60;99.90
32201;DHT22;18701;45.588;5.288;2024-01-27T05:50:24;7.70;99.90
32201;DHT22;18701;45.588;5.288;2024-01-27T05:52:49;7.70;99.90
32201;DHT22;18701;45.588;5.288;2024-01-27T05:55:15;7.70;99.90
32201;DHT22;18701;45.588;5.288;2024-01-27T05:57:42;7.70;99.90
32201;DHT22;18701;45.588;5.288;2024-01-27T06:00:08;7.60;99.90
32201;DHT22;18701;45.588;5.288;2024-01-27T06:02:35;7.70;99.90
32201;DHT22;18701;45.588;5.288;2024-01-27T06:05:01;7.80;99.90
32201;DHT22;18701;45.588;5.288;2024-01-27T06:07:27;7.80;99.90
32201;DHT22;18701;45.588;5.288;2024-01-27T06:09:53;8.00;99.90
32201;DHT22;18701;45.588;5.288;2024-01-27T06:12:19;7.90;99.90
32201;DHT22;18701;45.588;5.288;2024-01-27T06:14:47;7.80;99.90
32201;DHT22;18701;45.588;5.288;2024-01-27T06:17:13;7.90;99.90
32201;DHT22;18701;45.588;5.288;2024-01-27T06:19:40;8.10;99.90
32201;DHT22;18701;45.588;5.288;2024-01-27T06:22:06;7.90;99.90
32201;DHT22;18701;45.588;5.288;2024-01-27T06:24:31;8.00;99.90
32201;DHT22;18701;45.588;5.288;2024-01-27T06:26:57;7.90;99.90
32201;DHT22;18701;45.588;5.288;2024-01-27T06:29:23;7.80;99.90
32201;DHT22;18701;45.588;5.288;2024-01-27T06:31:49;7.80;99.90
32201;DHT22;18701;45.588;5.288;2024-01-27T06:34:14;7.60;99.90
32201;DHT22;18701;45.588;5.288;2024-01-27T06:36:40;7.70;99.90
32201;DHT22;18701;45.588;5.288;2024-01-27T06:39:06;7.70;99.90
32201;DHT22;18701;45.588;5.288;2024-01-27T06:41:33;7.80;99.90
32201;DHT22;18701;45.588;5.288;2024-01-27T06:43:58;7.80;99.90
32201;DHT22;18701;45.588;5.288;2024-01-27T06:46:24;7.70;99.90
32201;DHT22;18701;45.588;5.288;2024-01-27T06:48:50;7.50;99.90
32201;DHT22;18701;45.588;5.288;2024-01-27T06:51:16;7.50;99.90
32201;DHT22;18701;45.588;5.288;2024-01-27T06:53:41;7.50;99.90
32201;DHT22;18701;45.588;5.288;2024-01-27T06:56:07;7.50;99.90
32201;DHT22;18701;45.588;5.288;2024-01-27T06:58:33;7.50;99.90
32201;DHT22;18701;45.588;5.288;2024-01-27T07:01:00;7.60;99.90
32201;DHT22;18701;45.588;5.288;2024-01-27T07:03:26;7.50;99.90
32201;DHT22;18701;45.588;5.288;2024-01-27T07:05:51;7.60;99.90
32201;DHT22;18701;45.588;5.288;2024-01-27T07:08:20;7.30;99.90
32201;DHT22;18701;45.588;5.288;2024-01-27T07:10:46;7.20;99.90
32201;DHT22;18701;45.588;5.288;2024-01-27T07:13:11;7.30;99.90
32201;DHT22;18701;45.588;5.288;2024-01-27T07:15:37;7.50;99.90
32201;DHT22;18701;45.588;5.288;2024-01-27T07:18:03;7.30;99.90
32201;DHT22;18701;45.588;5.288;2024-01-27T07:20:29;7.30;99.90
32201;DHT22;18701;45.588;5.288;2024-01-27T07:22:54;7.30;99.90
32201;DHT22;18701;45.588;5.288;2024-01-27T07:25:20;7.20;99.90
32201;DHT22;18701;45.588;5.288;2024-01-27T07:27:46;6.90;99.90
32201;DHT22;18701;45.588;5.288;2024-01-27T07:30:12;7.10;99.90
32201;DHT22;18701;45.588;5.288;2024-01-27T07:32:38;6.90;99.90
32201;DHT22;18701;45.588;5.288;2024-01-27T07:35:04;6.90;99.90
32201;DHT22;18701;45.588;5.288;2024-01-27T07:37:31;6.90;99.90
32201;DHT22;18701;45.588;5.288;2024-01-27T07:39:56;6.90;99.90
32201;DHT22;18701;45.588;5.288;2024-01-27T07:42:22;7.00;99.90
32201;DHT22;18701;45.588;5.288;2024-01-27T07:44:48;6.80;99.90
32201;DHT22;18701;45.588;5.288;2024-01-27T07:47:15;6.90;99.90
32201;DHT22;18701;45.588;5.288;2024-01-27T07:49:40;7.00;99.90
32201;DHT22;18701;45.588;5.288;2024-01-27T07:52:06;6.80;99.90
32201;DHT22;18701;45.588;5.288;2024-01-27T07:54:31;6.80;99.90
32201;DHT22;18701;45.588;5.288;2024-01-27T07:56:58;6.40;99.90
32201;DHT22;18701;45.588;5.288;2024-01-27T07:59:24;6.50;99.90
32201;DHT22;18701;45.588;5.288;2024-01-27T08:01:50;6.60;99.90
32201;DHT22;18701;45.588;5.288;2024-01-27T08:04:15;6.70;99.90
32201;DHT22;18701;45.588;5.288;2024-01-27T08:06:49;6.80;99.90
32201;DHT22;18701;45.588;5.288;2024-01-27T08:09:15;6.80;99.90
32201;DHT22;18701;45.588;5.288;2024-01-27T08:11:41;6.70;99.90
32201;DHT22;18701;45.588;5.288;2024-01-27T08:14:07;6.70;99.90
32201;DHT22;18701;45.588;5.288;2024-01-27T08:16:33;6.70;99.90
32201;DHT22;18701;45.588;5.288;2024-01-27T08:18:58;6.70;99.90
32201;DHT22;18701;45.588;5.288;2024-01-27T08:21:24;6.80;99.90
32201;DHT22;18701;45.588;5.288;2024-01-27T08:23:49;6.70;99.90
32201;DHT22;18701;45.588;5.288;2024-01-27T08:26:15;6.50;99.90
32201;DHT22;18701;45.588;5.288;2024-01-27T08:28:41;6.60;99.90
32201;DHT22;18701;45.588;5.288;2024-01-27T08:31:06;6.60;99.90
32201;DHT22;18701;45.588;5.288;2024-01-27T08:33:32;6.70;99.90
32201;DHT22;18701;45.588;5.288;2024-01-27T08:35:58;6.40;99.90
32201;DHT22;18701;45.588;5.288;2024-01-27T08:38:23;6.50;99.90
32201;DHT22;18701;45.588;5.288;2024-01-27T08:40:49;6.40;99.90
32201;DHT22;18701;45.588;5.288;2024-01-27T08:43:14;6.20;99.90
32201;DHT22;18701;45.588;5.288;2024-01-27T08:45:40;6.50;99.90
32201;DHT22;18701;45.588;5.288;2024-01-27T08:48:07;6.30;99.90
32201;DHT22;18701;45.588;5.288;2024-01-27T08:50:33;6.40;99.90
32201;DHT22;18701;45.588;5.288;2024-01-27T08:52:58;6.60;99.90
32201;DHT22;18701;45.588;5.288;2024-01-27T08:55:24;6.50;99.90
32201;DHT22;18701;45.588;5.288;2024-01-27T08:57:52;6.60;99.90
32201;DHT22;18701;45.588;5.288;2024-01-27T09:00:18;6.70;99.90
32201;DHT22;18701;45.588;5.288;2024-01-27T09:02:44;6.80;99.90
32201;DHT22;18701;45.588;5.288;2024-01-27T09:05:10;6.80;99.90
32201;DHT22;18701;45.588;5.288;2024-01-27T09:07:36;6.40;99.90
32201;DHT22;18701;45.588;5.288;2024-01-27T09:10:02;6.40;99.90
32201;DHT22;18701;45.588;5.288;2024-01-27T09:12:28;6.50;99.90
32201;DHT22;18701;45.588;5.288;2024-01-27T09:14:54;6.70;99.90
32201;DHT22;18701;45.588;5.288;2024-01-27T09:17:20;6.80;99.90
32201;DHT22;18701;45.588;5.288;2024-01-27T09:19:45;6.60;99.90
32201;DHT22;18701;45.588;5.288;2024-01-27T09:22:11;6.80;99.90
32201;DHT22;18701;45.588;5.288;2024-01-27T09:24:37;6.60;99.90
32201;DHT22;18701;45.588;5.288;2024-01-27T09:27:02;6.80;99.90
32201;DHT22;18701;45.588;5.288;2024-01-27T09:29:29;6.50;99.90
32201;DHT22;18701;45.588;5.288;2024-01-27T09:31:55;6.70;99.90
32201;DHT22;18701;45.588;5.288;2024-01-27T09:34:20;6.50;99.90
32201;DHT22;18701;45.588;5.288;2024-01-27T09:36:46;6.50;99.90
32201;DHT22;18701;45.588;5.288;2024-01-27T09:39:12;6.60;99.90
32201;DHT22;18701;45.588;5.288;2024-01-27T09:41:37;6.60;99.90
32201;DHT22;18701;45.588;5.288;2024-01-27T09:44:04;6.50;99.90
32201;DHT22;18701;45.588;5.288;2024-01-27T09:46:31;6.60;99.90
32201;DHT22;18701;45.588;5.288;2024-01-27T09:48:57;6.50;99.90
32201;DHT22;18701;45.588;5.288;2024-01-27T09:51:23;6.30;99.90
32201;DHT22;18701;45.588;5.288;2024-01-27T09:53:49;6.40;99.90
32201;DHT22;18701;45.588;5.288;2024-01-27T09:56:18;6.40;99.90
32201;DHT22;18701;45.588;5.288;2024-01-27T09:58:44;6.60;99.90
32201;DHT22;18701;45.588;5.288;2024-01-27T10:01:11;6.50;99.90
32201;DHT22;18701;45.588;5.288;2024-01-27T10:03:40;6.70;99.90
32201;DHT22;18701;45.588;5.288;2024-01-27T10:06:08;6.80;99.90
32201;DHT22;18701;45.588;5.288;2024-01-27T10:08:35;6.70;99.90
32201;DHT22;18701;45.588;5.288;2024-01-27T10:11:07;6.60;99.90
32201;DHT22;18701;45.588;5.288;2024-01-27T10:13:34;6.70;99.90
32201;DHT22;18701;45.588;5.288;2024-01-27T10:16:06;6.80;99.90
32201;DHT22;18701;45.588;5.288;2024-01-27T10:18:33;6.80;99.90
32201;DHT22;18701;45.588;5.288;2024-01-27T10:21:00;6.70;99.90
32201;DHT22;18701;45.588;5.288;2024-01-27T10:23:26;6.60;99.90
32201;DHT22;18701;45.588;5.288;2024-01-27T10:25:52;6.40;99.90
32201;DHT22;18701;45.588;5.288;2024-01-27T10:28:18;6.40;99.90
32201;DHT22;18701;45.588;5.288;2024-01-27T10:30:44;6.50;99.90
32201;DHT22;18701;45.588;5.288;2024-01-27T10:33:11;6.80;99.90
32201;DHT22;18701;45.588;5.288;2024-01-27T10:35:42;6.90;99.90
32201;DHT22;18701;45.588;5.288;2024-01-27T10:38:08;6.90;99.90
32201;DHT22;18701;45.588;5.288;2024-01-27T10:40:35;7.00;99.90
32201;DHT22;18701;45.588;5.288;2024-01-27T10:43:08;7.00;99.90
32201;DHT22;18701;45.588;5.288;2024-01-27T10:45:39;7.10;99.90
32201;DHT22;18701;45.588;5.288;2024-01-27T10:48:06;7.10;99.90
32201;DHT22;18701;45.588;5.288;2024-01-27T10:50:37;6.90;99.90
32201;DHT22;18701;45.588;5.288;2024-01-27T10:53:04;6.60;99.90
32201;DHT22;18701;45.588;5.288;2024-01-27T10:55:33;6.80;99.90
32201;DHT22;18701;45.588;5.288;2024-01-27T10:58:02;6.70;99.90
32201;DHT22;18701;45.588;5.288;2024-01-27T11:00:29;6.90;99.90
32201;DHT22;18701;45.588;5.288;2024-01-27T11:03:02;7.10;99.90
32201;DHT22;18701;45.588;5.288;2024-01-27T11:05:28;7.10;99.90
32201;DHT22;18701;45.588;5.288;2024-01-27T11:07:56;7.00;99.90
32201;DHT22;18701;45.588;5.288;2024-01-27T11:10:23;7.20;99.90
32201;DHT22;18701;45.588;5.288;2024-01-27T11:12:49;7.20;99.90
32201;DHT22;18701;45.588;5.288;2024-01-27T11:15:16;7.00;99.90
32201;DHT22;18701;45.588;5.288;2024-01-27T11:17:42;7.20;99.90
32201;DHT22;18701;45.588;5.288;2024-01-27T11:20:09;7.30;99.90
32201;DHT22;18701;45.588;5.288;2024-01-27T11:22:37;7.20;99.90
32201;DHT22;18701;45.588;5.288;2024-01-27T11:25:15;7.10;99.90
32201;DHT22;18701;45.588;5.288;2024-01-27T11:27:43;7.30;99.90
32201;DHT22;18701;45.588;5.288;2024-01-27T11:30:26;7.20;99.90
32201;DHT22;18701;45.588;5.288;2024-01-27T11:32:55;7.20;99.90
32201;DHT22;18701;45.588;5.288;2024-01-27T11:35:21;7.40;99.90
32201;DHT22;18701;45.588;5.288;2024-01-27T11:37:47;7.30;99.90
32201;DHT22;18701;45.588;5.288;2024-01-27T11:40:14;7.50;99.90
32201;DHT22;18701;45.588;5.288;2024-01-27T11:42:41;7.60;99.90
32201;DHT22;18701;45.588;5.288;2024-01-27T11:45:08;7.50;99.90
32201;DHT22;18701;45.588;5.288;2024-01-27T11:47:34;7.60;99.90
32201;DHT22;18701;45.588;5.288;2024-01-27T11:50:00;7.70;99.90
32201;DHT22;18701;45.588;5.288;2024-01-27T11:52:28;7.90;99.90
32201;DHT22;18701;45.588;5.288;2024-01-27T11:54:57;7.70;99.90
32201;DHT22;18701;45.588;5.288;2024-01-27T11:57:23;8.10;99.90
32201;DHT22;18701;45.588;5.288;2024-01-27T11:59:50;8.30;99.90
32201;DHT22;18701;45.588;5.288;2024-01-27T12:02:16;8.50;99.90
32201;DHT22;18701;45.588;5.288;2024-01-27T12:04:42;8.30;99.90
32201;DHT22;18701;45.588;5.288;2024-01-27T12:07:08;8.40;99.90
32201;DHT22;18701;45.588;5.288;2024-01-27T12:09:36;8.50;99.90
32201;DHT22;18701;45.588;5.288;2024-01-27T12:12:02;8.30;99.90
32201;DHT22;18701;45.588;5.288;2024-01-27T12:14:39;8.40;99.90
32201;DHT22;18701;45.588;5.288;2024-01-27T12:17:05;8.50;99.90
32201;DHT22;18701;45.588;5.288;2024-01-27T12:19:30;8.40;99.90
32201;DHT22;18701;45.588;5.288;2024-01-27T12:21:57;8.30;99.90
32201;DHT22;18701;45.588;5.288;2024-01-27T12:24:24;8.50;99.90
32201;DHT22;18701;45.588;5.288;2024-01-27T12:26:49;8.50;99.90
32201;DHT22;18701;45.588;5.288;2024-01-27T12:29:15;8.50;99.90
32201;DHT22;18701;45.588;5.288;2024-01-27T12:31:41;8.50;99.90
32201;DHT22;18701;45.588;5.288;2024-01-27T12:34:07;8.30;99.90
32201;DHT22;18701;45.588;5.288;2024-01-27T12:36:33;8.50;99.90
32201;DHT22;18701;45.588;5.288;2024-01-27T12:39:00;8.80;99.90
32201;DHT22;18701;45.588;5.288;2024-01-27T12:41:27;8.60;99.90
32201;DHT22;18701;45.588;5.288;2024-01-27T12:43:54;8.70;99.90
32201;DHT22;18701;45.588;5.288;2024-01-27T12:46:20;8.90;99.90
32201;DHT22;18701;45.588;5.288;2024-01-27T12:48:45;8.90;99.90
32201;DHT22;18701;45.588;5.288;2024-01-27T12:51:11;9.00;99.90
32201;DHT22;18701;45.588;5.288;2024-01-27T12:53:41;9.20;99.90
32201;DHT22;18701;45.588;5.288;2024-01-27T12:56:09;9.20;99.90
32201;DHT22;18701;45.588;5.288;2024-01-27T12:58:35;9.10;99.90
32201;DHT22;18701;45.588;5.288;2024-01-27T13:01:01;9.40;99.90
32201;DHT22;18701;45.588;5.288;2024-01-27T13:03:26;9.20;99.90
32201;DHT22;18701;45.588;5.288;2024-01-27T13:05:54;9.30;99.90
32201;DHT22;18701;45.588;5.288;2024-01-27T13:08:19;9.40;99.90
32201;DHT22;18701;45.588;5.288;2024-01-27T13:10:45;9.40;99.90
32201;DHT22;18701;45.588;5.288;2024-01-27T13:13:11;9.60;99.90
32201;DHT22;18701;45.588;5.288;2024-01-27T13:15:36;9.90;99.90
32201;DHT22;18701;45.588;5.288;2024-01-27T13:18:02;9.90;99.90
32201;DHT22;18701;45.588;5.288;2024-01-27T13:20:27;9.80;99.90
32201;DHT22;18701;45.588;5.288;2024-01-27T13:22:53;9.90;99.90
32201;DHT22;18701;45.588;5.288;2024-01-27T13:25:19;10.00;99.90
32201;DHT22;18701;45.588;5.288;2024-01-27T13:27:45;10.10;99.90
32201;DHT22;18701;45.588;5.288;2024-01-27T13:30:12;10.30;99.90
32201;DHT22;18701;45.588;5.288;2024-01-27T13:32:39;11.90;99.90
32201;DHT22;18701;45.588;5.288;2024-01-27T13:35:07;14.40;99.90
32201;DHT22;18701;45.588;5.288;2024-01-27T13:37:33;13.80;99.90
32201;DHT22;18701;45.588;5.288;2024-01-27T13:40:03;12.80;99.90
32201;DHT22;18701;45.588;5.288;2024-01-27T13:42:29;13.00;99.90
32201;DHT22;18701;45.588;5.288;2024-01-27T13:44:55;13.50;99.90
32201;DHT22;18701;45.588;5.288;2024-01-27T13:47:21;15.70;99.90
32201;DHT22;18701;45.588;5.288;2024-01-27T13:49:47;16.90;99.90
32201;DHT22;18701;45.588;5.288;2024-01-27T13:52:13;18.70;99.90
32201;DHT22;18701;45.588;5.288;2024-01-27T13:54:39;17.00;99.90
32201;DHT22;18701;45.588;5.288;2024-01-27T13:57:05;16.60;99.90
32201;DHT22;18701;45.588;5.288;2024-01-27T13:59:31;18.00;99.90
32201;DHT22;18701;45.588;5.288;2024-01-27T14:01:57;18.90;99.90
32201;DHT22;18701;45.588;5.288;2024-01-27T14:04:23;16.90;99.90
32201;DHT22;18701;45.588;5.288;2024-01-27T14:06:53;17.70;99.90
32201;DHT22;18701;45.588;5.288;2024-01-27T14:09:23;17.30;99.90
32201;DHT22;18701;45.588;5.288;2024-01-27T14:11:49;17.50;99.90
32201;DHT22;18701;45.588;5.288;2024-01-27T14:14:15;16.50;99.90
32201;DHT22;18701;45.588;5.288;2024-01-27T14:16:43;15.50;99.90
32201;DHT22;18701;45.588;5.288;2024-01-27T14:19:10;15.10;99.90
32201;DHT22;18701;45.588;5.288;2024-01-27T14:21:36;14.60;99.90
32201;DHT22;18701;45.588;5.288;2024-01-27T14:24:02;14.20;99.90
32201;DHT22;18701;45.588;5.288;2024-01-27T14:26:30;13.60;99.90
32201;DHT22;18701;45.588;5.288;2024-01-27T14:28:56;13.00;99.90
32201;DHT22;18701;45.588;5.288;2024-01-27T14:31:22;12.70;99.90
32201;DHT22;18701;45.588;5.288;2024-01-27T14:33:49;12.30;99.90
32201;DHT22;18701;45.588;5.288;2024-01-27T14:36:16;12.00;99.90
32201;DHT22;18701;45.588;5.288;2024-01-27T14:38:41;12.10;99.90
32201;DHT22;18701;45.588;5.288;2024-01-27T14:41:08;11.90;99.90
32201;DHT22;18701;45.588;5.288;2024-01-27T14:43:34;11.80;99.90
32201;DHT22;18701;45.588;5.288;2024-01-27T14:45:59;11.60;99.90
32201;DHT22;18701;45.588;5.288;2024-01-27T14:48:25;11.70;99.90
32201;DHT22;18701;45.588;5.288;2024-01-27T14:50:51;11.10;99.90
32201;DHT22;18701;45.588;5.288;2024-01-27T14:53:28;11.20;99.90
32201;DHT22;18701;45.588;5.288;2024-01-27T14:55:54;11.00;99.90
32201;DHT22;18701;45.588;5.288;2024-01-27T14:58:20;11.10;99.90
32201;DHT22;18701;45.588;5.288;2024-01-27T15:00:46;11.00;99.90
32201;DHT22;18701;45.588;5.288;2024-01-27T15:03:18;10.80;99.90
32201;DHT22;18701;45.588;5.288;2024-01-27T15:05:43;10.60;99.90
32201;DHT22;18701;45.588;5.288;2024-01-27T15:08:09;10.70;99.90
32201;DHT22;18701;45.588;5.288;2024-01-27T15:10:35;10.80;99.90
32201;DHT22;18701;45.588;5.288;2024-01-27T15:13:00;10.80;99.90
32201;DHT22;18701;45.588;5.288;2024-01-27T15:15:27;11.20;99.90
32201;DHT22;18701;45.588;5.288;2024-01-27T15:17:52;11.30;99.90
32201;DHT22;18701;45.588;5.288;2024-01-27T15:20:20;11.10;99.90
32201;DHT22;18701;45.588;5.288;2024-01-27T15:22:46;10.90;99.90
32201;DHT22;18701;45.588;5.288;2024-01-27T15:25:12;11.10;99.90
32201;DHT22;18701;45.588;5.288;2024-01-27T15:27:37;11.10;99.90
32201;DHT22;18701;45.588;5.288;2024-01-27T15:30:03;11.00;99.90
32201;DHT22;18701;45.588;5.288;2024-01-27T15:32:29;11.30;99.90
32201;DHT22;18701;45.588;5.288;2024-01-27T15:34:55;11.30;99.90